createdAt,value
2022-08-16T00:01:57.277Z,99039.88
2022-08-16T00:04:01.743Z,99037.59
2022-08-16T00:06:07.062Z,99033.78
2022-08-16T00:08:09.111Z,99032.50
2022-08-16T00:10:33.315Z,99037.16
2022-08-16T00:12:35.247Z,99030.28
2022-08-16T00:14:36.930Z,99044.47
2022-08-16T00:17:00.657Z,99049.50
2022-08-16T00:19:01.251Z,99037.63
2022-08-16T00:21:04.357Z,99038.81
2022-08-16T00:23:06.750Z,99041.28
2022-08-16T00:25:16.667Z,99043.91
2022-08-16T00:27:18.393Z,99039.06
2022-08-16T00:29:20.259Z,99043.06
2022-08-16T00:31:24.187Z,99048.34
2022-08-16T00:33:26.151Z,99044.72
2022-08-16T00:35:31.171Z,99045.34
2022-08-16T00:37:57.806Z,99033.78
2022-08-16T00:39:58.766Z,99024.78
2022-08-16T00:42:00.679Z,99030.44
2022-08-16T00:44:11.048Z,99026.25
2022-08-16T00:46:34.852Z,99022.84
2022-08-16T00:48:43.833Z,99032.06
2022-08-16T00:50:46.493Z,99035.94
2022-08-16T00:52:51.328Z,99028.09
2022-08-16T00:54:53.394Z,99033.16
2022-08-16T00:56:59.636Z,99037.47
2022-08-16T00:59:02.432Z,99037.28
2022-08-16T01:01:08.832Z,99038.00
2022-08-16T01:03:14.678Z,99032.38
2022-08-16T01:05:16.591Z,99029.19
2022-08-16T01:07:20.152Z,99032.88
2022-08-16T01:09:22.895Z,99021.22
2022-08-16T01:11:26.011Z,99033.41
2022-08-16T01:13:31.469Z,99039.78
2022-08-16T01:15:36.167Z,99029.09
2022-08-16T01:17:39.081Z,99045.56
2022-08-16T01:19:52.303Z,99033.00
2022-08-16T01:22:48.221Z,99031.63
2022-08-16T01:24:53.277Z,99032.22
2022-08-16T01:27:15.391Z,99022.16
2022-08-16T01:29:47.163Z,99025.22
2022-08-16T01:31:49.385Z,99039.53
2022-08-16T01:33:53.865Z,99035.22
2022-08-16T01:36:01.644Z,99046.31
2022-08-16T01:38:22.158Z,99047.91
2022-08-16T01:40:30.278Z,99042.19
2022-08-16T01:42:32.246Z,99047.72
2022-08-16T01:44:38.252Z,99047.78
2022-08-16T01:46:46.780Z,99055.25
2022-08-16T01:48:49.537Z,99026.72
2022-08-16T01:51:09.788Z,99024.25
2022-08-16T01:53:13.781Z,99025.69
2022-08-16T01:55:18.373Z,99011.56
2022-08-16T01:57:22.784Z,99030.06
2022-08-16T01:59:28.468Z,99034.84
2022-08-16T02:01:31.789Z,99038.75
2022-08-16T02:03:33.814Z,99031.47
2022-08-16T02:05:35.619Z,99033.84
2022-08-16T02:07:39.022Z,99041.41
2022-08-16T02:09:58.864Z,99036.13
2022-08-16T02:12:49.769Z,99036.25
2022-08-16T02:14:27.234Z,99045.91
2022-08-16T02:16:29.301Z,99038.13
2022-08-16T02:18:31.152Z,99044.78
2022-08-16T02:20:39.581Z,99043.09
2022-08-16T02:22:44.375Z,99045.06
2022-08-16T02:24:49.553Z,99042.53
2022-08-16T02:26:52.037Z,99040.97
2022-08-16T02:28:54.212Z,99032.19
2022-08-16T02:30:59.504Z,99030.47
2022-08-16T02:33:03.748Z,99028.38
2022-08-16T02:35:06.238Z,99018.47
2022-08-16T02:37:11.412Z,99019.81
2022-08-16T02:39:14.808Z,99025.41
2022-08-16T02:41:16.702Z,99006.13
2022-08-16T02:43:19.552Z,99010.66
2022-08-16T02:45:27.828Z,99004.28
2022-08-16T02:47:29.830Z,99024.06
2022-08-16T02:49:58.448Z,99012.97
2022-08-16T02:51:53.024Z,99017.78
2022-08-16T02:53:57.365Z,99022.34
2022-08-16T02:55:59.252Z,99006.41
2022-08-16T02:58:02.195Z,99023.91
2022-08-16T03:00:34.594Z,99014.47
2022-08-16T03:02:31.780Z,99006.69
2022-08-16T03:04:50.281Z,99009.84
2022-08-16T03:06:56.416Z,99015.97
2022-08-16T03:08:58.952Z,99004.88
2022-08-16T03:11:02.426Z,99005.38
2022-08-16T03:13:12.685Z,99002.94
2022-08-16T03:15:15.305Z,99011.91
2022-08-16T03:17:19.715Z,99001.28
2022-08-16T03:19:23.525Z,99007.00
2022-08-16T03:21:25.501Z,98988.13
2022-08-16T03:23:28.260Z,99005.91
2022-08-16T03:25:44.250Z,98994.38
2022-08-16T03:27:46.533Z,98984.66
2022-08-16T03:29:54.526Z,98995.47
2022-08-16T03:31:56.557Z,99000.63
2022-08-16T03:34:00.961Z,98991.09
2022-08-16T03:36:29.970Z,98999.03
2022-08-16T03:38:34.243Z,98998.66
2022-08-16T03:40:38.077Z,98985.47
2022-08-16T03:43:19.273Z,98998.72
2022-08-16T03:45:03.373Z,98997.81
2022-08-16T03:47:10.380Z,98993.34
2022-08-16T03:49:13.157Z,98987.66
2022-08-16T03:51:15.498Z,98994.72
2022-08-16T03:53:17.213Z,98986.00
2022-08-16T03:55:18.861Z,98992.16
2022-08-16T03:57:21.768Z,98992.59
2022-08-16T03:59:24.348Z,98990.06
2022-08-16T04:01:29.145Z,98990.81
2022-08-16T04:03:31.568Z,98993.22
2022-08-16T04:05:47.337Z,98992.16
2022-08-16T04:07:49.155Z,98994.50
2022-08-16T04:09:52.521Z,99002.75
2022-08-16T04:11:54.464Z,98993.03
2022-08-16T04:14:01.849Z,98999.63
2022-08-16T04:16:26.708Z,99007.19
2022-08-16T04:18:30.873Z,99002.69
2022-08-16T04:20:37.071Z,99003.78
2022-08-16T04:22:39.811Z,99000.38
2022-08-16T04:24:41.854Z,99008.94
2022-08-16T04:26:56.195Z,99013.34
2022-08-16T04:29:15.070Z,99011.28
2022-08-16T04:31:20.357Z,99011.31
2022-08-16T04:33:27.474Z,99019.22
2022-08-16T04:35:34.282Z,99025.41
2022-08-16T04:37:41.838Z,99013.69
2022-08-16T04:39:47.195Z,99008.50
2022-08-16T04:41:57.440Z,99013.81
2022-08-16T04:44:00.670Z,99024.19
2022-08-16T04:46:03.249Z,99023.88
2022-08-16T04:48:05.412Z,99026.91
2022-08-16T04:50:12.037Z,99022.88
2022-08-16T04:52:34.030Z,99029.72
2022-08-16T04:54:37.460Z,99030.19
2022-08-16T04:56:46.300Z,99029.31
2022-08-16T04:58:48.126Z,99036.19
2022-08-16T05:00:50.320Z,99032.59
2022-08-16T05:02:56.275Z,99037.00
2022-08-16T05:05:00.370Z,99045.94
2022-08-16T05:07:02.151Z,99049.81
2022-08-16T05:09:06.307Z,99043.06
2022-08-16T05:11:10.443Z,99042.38
2022-08-16T05:13:15.788Z,99044.22
2022-08-16T05:15:17.970Z,99044.94
2022-08-16T05:17:20.352Z,99064.16
2022-08-16T05:19:35.941Z,99054.97
2022-08-16T05:21:41.576Z,99051.94
2022-08-16T05:23:51.446Z,99057.16
2022-08-16T05:25:53.500Z,99056.38
2022-08-16T05:27:56.566Z,99061.84
2022-08-16T05:30:01.275Z,99055.88
2022-08-16T05:32:32.662Z,99037.78
2022-08-16T05:34:28.550Z,99050.84
2022-08-16T05:36:33.951Z,99055.50
2022-08-16T05:38:39.391Z,99055.25
2022-08-16T05:40:42.026Z,99069.66
2022-08-16T05:42:58.987Z,99066.34
2022-08-16T05:45:01.266Z,99068.66
2022-08-16T05:47:08.420Z,99069.38
2022-08-16T05:49:10.725Z,99054.59
2022-08-16T05:51:14.100Z,99073.03
2022-08-16T05:53:36.401Z,99085.59
2022-08-16T05:55:41.006Z,99096.94
2022-08-16T05:57:42.644Z,99100.22
2022-08-16T05:59:47.312Z,99093.41
2022-08-16T06:01:52.657Z,99079.16
2022-08-16T06:03:55.012Z,99082.56
2022-08-16T06:06:00.595Z,99079.72
2022-08-16T06:08:02.454Z,99053.56
2022-08-16T06:10:05.479Z,99054.47
2022-08-16T06:12:08.316Z,99066.91
2022-08-16T06:14:11.281Z,99080.34
2022-08-16T06:16:18.201Z,99076.84
2022-08-16T06:18:20.361Z,99085.47
2022-08-16T06:20:35.965Z,99091.19
2022-08-16T06:22:39.720Z,99089.31
2022-08-16T06:24:54.776Z,99099.28
2022-08-16T06:26:58.394Z,99087.16
2022-08-16T06:29:00.205Z,99099.19
2022-08-16T06:31:02.043Z,99098.06
2022-08-16T06:33:04.109Z,99107.00
2022-08-16T06:35:07.186Z,99092.81
2022-08-16T06:37:08.865Z,99116.31
2022-08-16T06:39:11.500Z,99110.56
2022-08-16T06:41:13.912Z,99113.31
2022-08-16T06:43:15.867Z,99110.41
2022-08-16T06:45:20.891Z,99114.31
2022-08-16T06:47:53.686Z,99100.66
2022-08-16T06:49:54.078Z,99111.34
2022-08-16T06:52:02.911Z,99114.84
2022-08-16T06:54:05.933Z,99105.69
2022-08-16T06:56:14.270Z,99111.59
2022-08-16T06:58:31.218Z,99115.16
2022-08-16T07:00:33.684Z,99109.31
2022-08-16T07:02:35.316Z,99116.50
2022-08-16T07:04:37.317Z,99085.38
2022-08-16T07:06:40.765Z,99103.72
2022-08-16T07:08:46.530Z,99120.63
2022-08-16T07:10:50.122Z,99114.94
2022-08-16T07:13:03.910Z,99094.81
2022-08-16T07:15:18.728Z,99109.94
2022-08-16T07:17:22.999Z,99110.81
2022-08-16T07:20:03.648Z,99111.28
2022-08-16T07:21:59.834Z,99111.28
2022-08-16T07:24:06.198Z,99108.13
2022-08-16T07:26:10.121Z,99126.31
2022-08-16T07:28:20.735Z,99125.06
2022-08-16T07:30:45.816Z,99122.50
2022-08-16T07:32:51.340Z,99108.22
2022-08-16T07:34:53.368Z,99117.56
2022-08-16T07:36:58.291Z,99096.78
2022-08-16T07:39:00.464Z,99103.13
2022-08-16T07:41:02.445Z,99104.16
2022-08-16T07:43:12.060Z,99116.38
2022-08-16T07:45:14.156Z,99101.72
2022-08-16T07:47:19.182Z,99113.16
2022-08-16T07:49:26.184Z,99105.31
2022-08-16T07:51:37.173Z,99098.72
2022-08-16T07:53:43.720Z,99098.22
2022-08-16T07:55:48.254Z,99110.69
2022-08-16T07:58:00.957Z,99129.66
2022-08-16T08:00:06.122Z,99130.06
2022-08-16T08:02:21.161Z,99133.59
2022-08-16T08:04:22.900Z,99134.78
2022-08-16T08:06:28.738Z,99128.63
2022-08-16T08:08:50.777Z,99142.41
2022-08-16T08:10:52.522Z,99139.53
2022-08-16T08:12:55.060Z,99135.13
2022-08-16T08:15:01.074Z,99127.41
2022-08-16T08:17:05.297Z,99139.38
2022-08-16T08:19:12.315Z,99127.53
2022-08-16T08:21:14.041Z,99134.56
2022-08-16T08:23:15.740Z,99127.94
2022-08-16T08:25:18.361Z,99123.09
2022-08-16T08:27:22.597Z,99123.53
2022-08-16T08:29:37.807Z,99120.50
2022-08-16T08:31:42.446Z,99125.41
2022-08-16T08:33:47.369Z,99120.47
2022-08-16T08:35:57.653Z,99117.59
2022-08-16T08:38:03.070Z,99107.25
2022-08-16T08:40:10.672Z,99118.47
2022-08-16T08:42:12.345Z,99113.06
2022-08-16T08:44:29.883Z,99114.47
2022-08-16T08:46:35.749Z,99116.44
2022-08-16T08:48:38.516Z,99113.03
2022-08-16T08:50:50.007Z,99113.94
2022-08-16T08:52:53.868Z,99112.34
2022-08-16T08:54:55.683Z,99133.97
2022-08-16T08:56:57.419Z,99128.28
2022-08-16T08:59:03.127Z,99130.47
2022-08-16T09:01:09.514Z,99143.03
2022-08-16T09:03:11.168Z,99143.13
2022-08-16T09:05:14.879Z,99144.44
2022-08-16T09:07:17.708Z,99135.22
2022-08-16T09:09:21.769Z,99146.44
2022-08-16T09:11:23.421Z,99135.97
2022-08-16T09:13:47.121Z,99134.03
2022-08-16T09:15:50.653Z,99138.38
2022-08-16T09:17:56.993Z,99131.91
2022-08-16T09:20:01.496Z,99123.16
2022-08-16T09:22:05.899Z,99119.88
2022-08-16T09:24:46.410Z,99145.25
2022-08-16T09:26:45.876Z,99159.66
2022-08-16T09:29:16.838Z,99159.38
2022-08-16T09:31:11.132Z,99153.28
2022-08-16T09:33:19.794Z,99146.31
2022-08-16T09:35:22.628Z,99135.13
2022-08-16T09:37:29.730Z,99138.28
2022-08-16T09:39:41.630Z,99150.78
2022-08-16T09:41:53.202Z,99126.69
2022-08-16T09:43:59.735Z,99143.63
2022-08-16T09:46:48.447Z,99141.81
2022-08-16T09:48:36.868Z,99131.34
2022-08-16T09:50:46.620Z,99138.88
2022-08-16T09:52:48.513Z,99142.81
2022-08-16T09:54:50.188Z,99128.56
2022-08-16T09:56:53.830Z,99129.50
2022-08-16T09:59:05.743Z,99127.66
2022-08-16T10:01:11.136Z,99133.00
2022-08-16T10:03:13.215Z,99121.63
2022-08-16T10:05:14.890Z,99130.06
2022-08-16T10:07:18.203Z,99129.84
2022-08-16T10:09:19.820Z,99130.34
2022-08-16T10:11:50.492Z,99125.19
2022-08-16T10:13:52.773Z,99136.47
2022-08-16T10:15:59.963Z,99133.91
2022-08-16T10:18:56.490Z,99129.66
2022-08-16T10:20:32.596Z,99108.31
2022-08-16T10:22:35.960Z,99123.13
2022-08-16T10:24:37.820Z,99115.91
2022-08-16T10:27:16.209Z,99126.44
2022-08-16T10:29:04.815Z,99131.97
2022-08-16T10:31:08.548Z,99134.22
2022-08-16T10:33:14.891Z,99130.31
2022-08-16T10:35:18.696Z,99116.56
2022-08-16T10:37:35.900Z,99106.69
2022-08-16T10:39:41.373Z,99104.38
2022-08-16T10:41:43.884Z,99098.97
2022-08-16T10:43:47.632Z,99106.19
2022-08-16T10:46:00.595Z,99108.13
2022-08-16T10:48:03.512Z,99109.03
2022-08-16T10:50:07.116Z,99109.25
2022-08-16T10:52:24.217Z,99101.53
2022-08-16T10:54:29.764Z,99087.59
2022-08-16T10:56:52.092Z,99090.66
2022-08-16T10:59:29.630Z,99100.16
2022-08-16T11:03:43.075Z,99071.03
2022-08-16T11:06:05.961Z,99096.81
2022-08-16T11:08:08.457Z,99093.53
2022-08-16T11:11:05.360Z,99091.38
2022-08-16T11:12:35.907Z,99099.47
2022-08-16T11:14:38.786Z,99109.53
2022-08-16T11:19:12.826Z,99104.63
2022-08-16T11:21:29.318Z,99120.81
2022-08-16T11:23:31.366Z,99119.78
2022-08-16T11:27:57.529Z,99130.28
2022-08-16T11:30:00.917Z,99117.34
2022-08-16T11:32:05.608Z,99119.84
2022-08-16T11:34:09.968Z,99106.97
2022-08-16T11:36:27.760Z,99102.72
2022-08-16T11:38:51.079Z,99115.75
2022-08-16T11:40:58.164Z,99104.25
2022-08-16T11:43:04.139Z,99120.84
2022-08-16T11:45:06.921Z,99114.59
2022-08-16T11:47:09.445Z,99106.50
2022-08-16T11:49:13.875Z,99105.97
2022-08-16T11:51:15.691Z,99103.88
2022-08-16T11:53:18.746Z,99110.59
2022-08-16T11:55:20.428Z,99124.03
2022-08-16T11:57:25.296Z,99130.50
2022-08-16T11:59:29.363Z,99121.81
2022-08-16T12:01:44.594Z,99104.56
2022-08-16T12:03:52.873Z,99102.34
2022-08-16T12:05:56.386Z,99088.97
2022-08-16T12:07:58.432Z,99090.31
2022-08-16T12:10:06.823Z,99077.72
2022-08-16T12:12:10.481Z,99096.25
2022-08-16T12:14:14.271Z,99082.06
2022-08-16T12:16:20.440Z,99099.84
2022-08-16T12:18:22.656Z,99104.94
2022-08-16T12:20:31.281Z,99101.41
2022-08-16T12:22:43.888Z,99098.28
2022-08-16T12:24:51.019Z,99093.94
2022-08-16T12:26:54.951Z,99096.75
2022-08-16T12:28:59.520Z,99099.34
2022-08-16T12:31:01.857Z,99076.53
2022-08-16T12:33:05.156Z,99092.72
2022-08-16T12:35:12.508Z,99083.53
2022-08-16T12:37:15.559Z,99079.28
2022-08-16T12:39:20.353Z,99074.84
2022-08-16T12:41:25.074Z,99052.28
2022-08-16T12:43:31.244Z,99070.56
2022-08-16T12:45:40.647Z,99090.50
2022-08-16T12:48:29.759Z,99081.22
2022-08-16T12:50:33.052Z,99067.78
2022-08-16T12:52:36.788Z,99080.63
2022-08-16T12:54:40.672Z,99067.63
2022-08-16T12:56:42.767Z,99076.00
2022-08-16T12:58:49.708Z,99078.91
2022-08-16T13:00:52.859Z,99081.38
2022-08-16T13:02:54.569Z,99079.75
2022-08-16T13:04:56.229Z,99075.00
2022-08-16T13:06:59.198Z,99088.22
2022-08-16T13:09:02.481Z,99067.91
2022-08-16T13:11:07.890Z,99055.00
2022-08-16T13:13:10.202Z,99063.28
2022-08-16T13:15:15.996Z,99070.22
2022-08-16T13:17:22.167Z,99075.88
2022-08-16T13:19:24.052Z,99075.91
2022-08-16T13:21:36.803Z,99078.09
2022-08-16T13:23:43.309Z,99069.31
2022-08-16T13:25:49.742Z,99064.66
2022-08-16T13:28:02.494Z,99064.09
2022-08-16T13:30:36.656Z,99052.03
2022-08-16T13:32:39.730Z,99044.47
2022-08-16T13:34:42.326Z,99035.72
2022-08-16T13:36:49.276Z,99042.13
2022-08-16T13:38:51.477Z,99037.03
2022-08-16T13:40:57.315Z,99049.75
2022-08-16T13:42:59.419Z,99038.91
2022-08-16T13:45:01.106Z,99048.75
2022-08-16T13:47:03.985Z,99038.97
2022-08-16T13:49:05.756Z,99033.47
2022-08-16T13:51:07.577Z,99025.84
2022-08-16T13:53:09.220Z,99043.31
2022-08-16T13:55:17.877Z,99032.19
2022-08-16T13:57:19.850Z,99027.13
2022-08-16T13:59:22.198Z,99015.09
2022-08-16T14:01:23.852Z,99032.63
2022-08-16T14:03:27.420Z,99035.69
2022-08-16T14:05:31.833Z,99022.72
2022-08-16T14:07:35.240Z,99042.59
2022-08-16T14:09:43.221Z,99039.97
2022-08-16T14:11:44.799Z,99036.69
2022-08-16T14:13:46.505Z,99060.03
2022-08-16T14:15:48.325Z,99057.34
2022-08-16T14:18:17.566Z,99063.09
2022-08-16T14:20:19.074Z,99055.19
2022-08-16T14:22:30.128Z,99059.22
2022-08-16T14:24:33.248Z,99053.28
2022-08-16T14:26:34.882Z,99051.88
2022-08-16T14:28:36.471Z,99039.28
2022-08-16T14:30:38.713Z,99046.94
2022-08-16T14:32:43.273Z,99020.59
2022-08-16T14:34:48.751Z,99025.72
2022-08-16T14:36:53.680Z,99044.34
2022-08-16T14:38:55.304Z,99034.03
2022-08-16T14:40:56.868Z,99031.84
2022-08-16T14:42:58.718Z,99035.16
2022-08-16T14:45:10.942Z,99046.50
2022-08-16T14:47:16.234Z,99059.28
2022-08-16T14:49:17.801Z,99058.47
2022-08-16T14:51:21.200Z,99055.44
2022-08-16T14:53:26.423Z,99060.63
2022-08-16T14:55:29.896Z,99058.16
2022-08-16T14:57:32.253Z,99064.66
2022-08-16T14:59:34.411Z,99057.47
2022-08-16T15:01:58.604Z,99045.59
2022-08-16T15:04:05.116Z,99047.53
2022-08-16T15:06:08.537Z,99038.53
2022-08-16T15:08:14.924Z,99041.50
2022-08-16T15:10:23.877Z,99042.13
2022-08-16T15:12:30.854Z,99028.91
2022-08-16T15:14:33.164Z,99020.78
2022-08-16T15:16:35.477Z,99039.25
2022-08-16T15:18:39.295Z,99052.59
2022-08-16T15:20:41.539Z,99037.19
2022-08-16T15:22:46.471Z,99015.66
2022-08-16T15:24:48.169Z,99013.38
2022-08-16T15:26:52.693Z,99013.09
2022-08-16T15:28:55.745Z,99021.06
2022-08-16T15:31:00.919Z,99026.06
2022-08-16T15:33:11.160Z,99028.97
2022-08-16T15:35:13.469Z,99029.88
2022-08-16T15:37:15.505Z,99021.56
2022-08-16T15:39:30.173Z,99024.84
2022-08-16T15:41:43.682Z,99015.94
2022-08-16T15:43:45.346Z,99029.53
2022-08-16T15:46:05.851Z,99042.75
2022-08-16T15:48:12.185Z,99026.66
2022-08-16T15:50:13.773Z,99020.13
2022-08-16T15:52:24.829Z,99020.38
2022-08-16T15:54:33.537Z,99025.09
2022-08-16T15:56:35.785Z,99024.94
2022-08-16T15:58:38.376Z,99028.09
2022-08-16T16:00:42.326Z,99033.59
2022-08-16T16:02:46.822Z,99027.34
2022-08-16T16:04:51.250Z,99017.91
2022-08-16T16:06:56.728Z,99010.00
2022-08-16T16:09:00.969Z,99010.94
2022-08-16T16:11:05.883Z,99021.88
2022-08-16T16:13:09.473Z,99025.31
2022-08-16T16:15:12.133Z,99020.06
2022-08-16T16:17:16.742Z,99020.09
2022-08-16T16:19:21.111Z,99019.78
2022-08-16T16:21:22.839Z,99037.25
2022-08-16T16:23:29.912Z,99032.47
2022-08-16T16:25:33.610Z,99029.41
2022-08-16T16:27:35.829Z,99017.78
2022-08-16T16:29:40.325Z,99008.19
2022-08-16T16:31:43.881Z,99005.44
2022-08-16T16:33:55.865Z,99000.44
2022-08-16T16:36:00.222Z,98996.28
2022-08-16T16:38:02.375Z,99009.97
2022-08-16T16:40:12.789Z,99003.59
2022-08-16T16:42:29.203Z,99000.63
2022-08-16T16:44:36.186Z,99012.63
2022-08-16T16:46:42.054Z,99017.50
2022-08-16T16:48:45.543Z,99013.34
2022-08-16T16:50:48.370Z,99014.78
2022-08-16T16:52:55.576Z,99019.75
2022-08-16T16:54:58.641Z,99021.78
2022-08-16T16:57:00.919Z,99029.03
2022-08-16T16:59:07.581Z,99028.81
2022-08-16T17:01:12.651Z,99027.44
2022-08-16T17:03:18.260Z,99028.72
2022-08-16T17:05:26.224Z,99028.00
2022-08-16T17:07:32.363Z,99015.97
2022-08-16T17:09:34.890Z,99019.00
2022-08-16T17:11:44.580Z,99013.41
2022-08-16T17:13:46.176Z,99012.41
2022-08-16T17:15:52.175Z,99005.53
2022-08-16T17:17:59.693Z,99007.81
2022-08-16T17:20:16.940Z,99013.34
2022-08-16T17:22:21.867Z,99011.81
2022-08-16T17:24:31.307Z,99011.53
2022-08-16T17:26:41.653Z,99019.50
2022-08-16T17:28:59.010Z,99017.09
2022-08-16T17:31:02.799Z,99011.16
2022-08-16T17:33:08.737Z,99006.47
2022-08-16T17:35:18.167Z,99014.47
2022-08-16T17:37:22.181Z,99011.81
2022-08-16T17:39:59.842Z,99011.00
2022-08-16T17:42:00.959Z,99017.38
2022-08-16T17:44:04.227Z,99002.50
2022-08-16T17:46:41.376Z,99012.66
2022-08-16T17:48:35.475Z,99013.81
2022-08-16T17:50:37.619Z,99023.31
2022-08-16T17:52:48.593Z,99023.38
2022-08-16T17:54:51.568Z,99023.59
2022-08-16T17:56:53.979Z,99012.56
2022-08-16T17:58:56.032Z,99005.81
2022-08-16T18:00:59.868Z,99005.25
2022-08-16T18:03:01.697Z,98996.19
2022-08-16T18:05:04.943Z,99003.59
2022-08-16T18:07:06.619Z,98998.25
2022-08-16T18:09:10.435Z,98996.69
2022-08-16T18:11:18.144Z,99009.09
2022-08-16T18:13:19.768Z,99018.09
2022-08-16T18:15:23.440Z,99021.78
2022-08-16T18:17:25.911Z,99024.66
2022-08-16T18:19:27.538Z,99012.13
2022-08-16T18:21:47.963Z,99014.75
2022-08-16T18:23:49.642Z,99002.25
2022-08-16T18:25:55.644Z,98995.94
2022-08-16T18:27:57.296Z,98990.28
2022-08-16T18:29:59.099Z,98998.72
2022-08-16T18:32:04.628Z,98998.00
2022-08-16T18:34:06.289Z,99003.06
2022-08-16T18:36:21.079Z,98996.72
2022-08-16T18:38:23.269Z,98987.97
2022-08-16T18:40:25.132Z,98983.47
2022-08-16T18:42:26.803Z,98992.41
2022-08-16T18:44:33.342Z,98990.56
2022-08-16T18:46:38.775Z,98993.53
2022-08-16T18:48:40.369Z,99001.56
2022-08-16T18:51:03.208Z,98998.94
2022-08-16T18:53:08.568Z,98990.91
2022-08-16T18:55:14.025Z,98984.28
2022-08-16T18:57:16.496Z,98979.31
2022-08-16T18:59:18.432Z,98993.13
2022-08-16T19:01:21.124Z,99010.84
2022-08-16T19:03:27.072Z,99018.47
2022-08-16T19:05:31.050Z,99021.03
2022-08-16T19:07:32.667Z,99032.84
2022-08-16T19:09:34.463Z,99026.31
2022-08-16T19:11:36.206Z,99025.13
2022-08-16T19:13:37.845Z,99017.41
2022-08-16T19:15:42.522Z,99024.63
2022-08-16T19:17:45.885Z,99017.31
2022-08-16T19:19:47.473Z,99033.34
2022-08-16T19:21:49.133Z,99035.25
2022-08-16T19:23:50.752Z,99037.38
2022-08-16T19:25:57.809Z,99034.63
2022-08-16T19:28:01.010Z,99005.88
2022-08-16T19:30:03.724Z,99002.28
2022-08-16T19:32:19.763Z,99001.72
2022-08-16T19:34:21.331Z,99005.66
2022-08-16T19:36:31.306Z,99000.53
2022-08-16T19:38:35.607Z,99009.72
2022-08-16T19:40:38.624Z,99009.47
2022-08-16T19:42:46.179Z,99026.25
2022-08-16T19:44:50.477Z,99040.09
2022-08-16T19:46:52.190Z,99048.22
2022-08-16T19:48:53.904Z,99055.97
2022-08-16T19:50:55.495Z,99059.84
2022-08-16T19:53:18.397Z,99059.63
2022-08-16T19:55:22.690Z,99063.94
2022-08-16T19:57:24.770Z,99056.63
2022-08-16T19:59:39.544Z,99051.22
2022-08-16T20:01:43.906Z,99058.59
2022-08-16T20:03:45.491Z,99050.09
2022-08-16T20:05:51.045Z,99058.28
2022-08-16T20:07:55.816Z,99061.59
2022-08-16T20:10:04.007Z,99059.69
2022-08-16T20:12:10.679Z,99052.50
2022-08-16T20:14:24.100Z,99040.47
2022-08-16T20:16:26.774Z,99059.38
2022-08-16T20:18:28.378Z,99057.75
2022-08-16T20:20:29.993Z,99066.16
2022-08-16T20:22:53.093Z,99067.78
2022-08-16T20:24:55.624Z,99072.31
2022-08-16T20:26:57.624Z,99088.56
2022-08-16T20:28:59.181Z,99083.03
2022-08-16T20:31:01.513Z,99060.50
2022-08-16T20:33:09.798Z,99053.59
2022-08-16T20:35:13.864Z,99066.94
2022-08-16T20:37:16.600Z,99077.75
2022-08-16T20:39:18.249Z,99079.84
2022-08-16T20:41:19.811Z,99085.19
2022-08-16T20:43:21.497Z,99082.44
2022-08-16T20:45:27.087Z,99086.53
2022-08-16T20:47:29.320Z,99087.53
2022-08-16T20:49:31.011Z,99092.16
2022-08-16T20:51:32.653Z,99088.03
2022-08-16T20:53:48.816Z,99074.69
2022-08-16T20:55:50.446Z,99080.50
2022-08-16T20:57:52.201Z,99073.06
2022-08-16T20:59:53.806Z,99075.50
2022-08-16T21:01:56.173Z,99071.16
2022-08-16T21:03:59.795Z,99068.06
2022-08-16T21:06:02.280Z,99049.59
2022-08-16T21:08:27.902Z,99043.28
2022-08-16T21:10:27.104Z,99049.53
2022-08-16T21:12:29.178Z,99062.63
2022-08-16T21:14:36.454Z,99072.81
2022-08-16T21:16:40.857Z,99069.53
2022-08-16T21:18:42.914Z,99053.75
2022-08-16T21:20:44.599Z,99062.03
2022-08-16T21:22:59.022Z,99062.31
2022-08-16T21:25:00.689Z,99081.81
2022-08-16T21:27:02.761Z,99079.22
2022-08-16T21:29:05.205Z,99078.94
2022-08-16T21:31:13.386Z,99084.00
2022-08-16T21:33:17.181Z,99082.44
2022-08-16T21:35:19.331Z,99078.69
2022-08-16T21:37:20.988Z,99080.72
2022-08-16T21:39:22.563Z,99066.50
2022-08-16T21:41:24.512Z,99072.59
2022-08-16T21:43:28.744Z,99058.59
2022-08-16T21:45:30.360Z,99060.06
2022-08-16T21:47:32.124Z,99056.09
2022-08-16T21:49:33.754Z,99065.53
2022-08-16T21:51:38.495Z,99061.78
2022-08-16T21:53:41.636Z,99058.72
2022-08-16T21:55:45.556Z,99059.50
2022-08-16T21:57:47.200Z,99055.25
2022-08-16T21:59:53.959Z,99052.84
2022-08-16T22:01:55.763Z,99070.97
2022-08-16T22:04:09.529Z,99069.63
2022-08-16T22:06:19.385Z,99068.66
2022-08-16T22:08:21.172Z,99079.81
2022-08-16T22:11:07.183Z,99074.13
2022-08-16T22:12:46.229Z,99067.16
2022-08-16T22:14:48.703Z,99074.34
2022-08-16T22:16:50.437Z,99059.94
2022-08-16T22:18:52.767Z,99068.06
2022-08-16T22:20:54.535Z,99070.06
2022-08-16T22:23:14.929Z,99059.38
2022-08-16T22:25:17.339Z,99080.13
2022-08-16T22:27:18.895Z,99082.59
2022-08-16T22:29:20.537Z,99085.25
2022-08-16T22:31:22.168Z,99095.72
2022-08-16T22:33:27.622Z,99097.53
2022-08-16T22:35:29.262Z,99108.88
2022-08-16T22:37:30.824Z,99101.19
2022-08-16T22:39:32.477Z,99100.66
2022-08-16T22:41:36.053Z,99079.53
2022-08-16T22:43:38.076Z,99086.72
2022-08-16T22:45:40.423Z,99093.06
2022-08-16T22:47:42.573Z,99086.78
2022-08-16T22:49:44.186Z,99092.78
2022-08-16T22:51:46.197Z,99094.34
2022-08-16T22:53:48.124Z,99077.47
2022-08-16T22:55:49.947Z,99071.00
2022-08-16T22:57:51.639Z,99078.88
2022-08-16T22:59:53.267Z,99074.81
2022-08-16T23:01:55.401Z,99072.72
2022-08-16T23:03:57.322Z,99065.38
2022-08-16T23:06:01.997Z,99077.06
2022-08-16T23:08:05.572Z,99072.16
2022-08-16T23:10:07.496Z,99064.38
2022-08-16T23:12:09.530Z,99073.19
2022-08-16T23:14:11.161Z,99075.41
2022-08-16T23:16:13.615Z,99081.16
2022-08-16T23:18:17.330Z,99081.47
2022-08-16T23:20:22.725Z,99082.34
2022-08-16T23:22:24.689Z,99091.13
2022-08-16T23:24:27.475Z,99091.56
2022-08-16T23:26:44.773Z,99098.88
2022-08-16T23:28:49.803Z,99096.19
2022-08-16T23:30:52.559Z,99083.00
2022-08-16T23:32:59.511Z,99083.50
2022-08-16T23:35:04.320Z,99076.72
2022-08-16T23:37:06.691Z,99083.78
2022-08-16T23:39:08.354Z,99069.47
2022-08-16T23:41:12.213Z,99075.94
2022-08-16T23:43:19.594Z,99055.78
2022-08-16T23:45:21.557Z,99073.94
2022-08-16T23:47:23.138Z,99073.97
2022-08-16T23:50:00.471Z,99069.47
2022-08-16T23:51:48.213Z,99069.72
2022-08-16T23:53:50.206Z,99071.28
2022-08-16T23:55:55.166Z,99058.00
2022-08-16T23:57:57.597Z,99065.13
2022-08-16T23:59:59.200Z,99053.44
